AKDT,Max TemperatureF,Mean TemperatureF,Min TemperatureF,Max Dew PointF,MeanDew PointF,Min DewpointF,Max Humidity, Mean Humidity, Min Humidity, Max Sea Level PressureIn, Mean Sea Level PressureIn, Min Sea Level PressureIn, Max VisibilityMiles, Mean VisibilityMiles, Min VisibilityMiles, Max Wind SpeedMPH, Mean Wind SpeedMPH, Max Gust SpeedMPH,PrecipitationIn, CloudCover, Events, WindDirDegrees
2013-3-1,39,31,22,23,20,18,0,0,0,29.93,29.73,29.50,10,10,10,10,4,12,0.00,2,,269
2013-3-2,37,29,21,33,27,18,0,0,0,29.92,29.87,29.82,10,8,3,36,16,41,0.04,7,Rain-Snow,120
2013-3-3,39,37,35,38,36,33,0,0,0,30.18,29.94,29.81,8,4,2,37,24,46,1.16,8,Rain-Snow,76
2013-3-4,40,39,37,39,37,34,0,0,0,30.34,30.28,30.20,10,7,3,21,15,25,0.36,8,Rain,111
2013-3-5,40,38,36,36,34,33,0,0,0,30.24,30.08,29.90,10,10,7,20,11,25,0.09,8,Rain,131
2013-3-6,41,37,33,38,36,33,0,0,0,29.89,29.80,29.62,10,8,2,15,9,20,0.02,8,Rain,125
2013-3-7,40,37,33,38,33,31,0,0,0,29.61,29.30,29.13,10,6,0,45,23,53,1.07,8,Fog-Rain-Snow,126
2013-3-8,39,37,35,36,32,29,0,0,0,29.68,29.49,29.37,10,9,2,26,15,40,0.14,7,Rain-Snow,151
2013-3-9,36,33,30,32,26,19,0,0,0,30.21,29.94,29.70,10,10,9,22,7,26,T,6,Snow,280
2013-3-10,41,34,26,28,21,17,0,0,0,30.25,30.17,30.08,10,10,2,26,9,39,T,4,Snow,273
2013-3-11,38,33,27,22,19,14,0,0,0,30.28,30.25,30.20,10,10,10,21,11,29,0.00,2,,295
2013-3-12,37,33,29,22,17,11,0,0,0,30.20,30.07,29.95,10,10,10,20,13,26,T,2,,304
2013-3-13,37,30,23,25,17,11,0,0,0,29.94,29.82,29.70,10,10,5,17,7,21,T,2,Snow,306
2013-3-14,36,27,17,32,25,13,0,0,0,29.70,29.64,29.61,10,8,0,28,10,33,0.09,6,Fog-Rain-Snow,84
2013-3-15,35,27,18,32,24,18,0,0,0,29.81,29.67,29.62,10,9,1,20,9,24,0.03,5,Snow,294
2013-3-16,38,30,21,25,20,16,0,0,0,30.15,29.97,29.83,10,10,3,15,6,20,T,7,Snow,290
2013-3-17,38,31,24,22,17,13,0,0,0,30.22,30.18,30.09,10,10,10,21,9,31,0.00,1,,269
2013-3-18,35,30,25,23,16,12,0,0,0,30.07,29.97,29.91,10,10,10,29,12,39,T,4,,285
2013-3-19,32,28,24,15,10,6,0,0,0,29.92,29.90,29.88,10,10,10,22,13,30,0.00,1,,292
2013-3-20,36,30,24,16,7,1,0,0,0,30.06,29.96,29.90,10,10,10,25,15,36,0.00,1,,284
2013-3-21,38,30,22,21,13,10,0,0,0,30.21,30.15,30.07,10,10,10,25,7,35,0.00,6,,213
2013-3-22,43,39,34,32,28,23,0,0,0,30.10,29.95,29.87,10,10,10,10,9,12,T,7,,208
2013-3-23,40,35,29,34,29,23,0,0,0,29.88,29.81,29.72,10,8,2,14,5,16,0.21,7,Snow,56
2013-3-24,34,30,26,32,28,14,0,0,0,29.71,29.62,29.58,10,4,1,26,14,36,0.42,8,Snow,330
2013-3-25,26,20,13,14,4,1,0,0,0,29.90,29.72,29.61,10,10,10,28,13,38,0.00,1,,282
2013-3-26,28,20,12,17,5,-2,0,0,0,30.15,30.04,29.91,10,10,10,18,6,21,0.00,4,,273
2013-3-27,37,26,15,34,26,11,0,0,0,30.15,30.09,30.00,10,8,2,13,4,15,0.07,7,Rain-Snow,118
2013-3-28,39,37,34,38,35,33,0,0,0,30.00,29.79,29.61,10,8,4,25,14,31,0.51,8,Rain,121
2013-3-29,43,38,32,38,34,30,0,0,0,29.95,29.77,29.67,10,10,10,8,4,10,0.03,6,Rain,230
2013-3-30,44,38,32,34,32,31,0,0,0,30.19,30.08,29.96,10,10,10,15,5,18,T,6,Rain,170
2013-3-31,41,34,26,34,31,25,0,0,0,30.20,30.17,30.14,10,10,5,12,5,15,0.02,6,Rain-Snow,305